KISW/ISW METAR and TAF weather

Enter ICAO airport designator
Station Type Date Time Source
KISW METAR 2018/12/13 20:54 UTC NOAA

KISW 132054Z AUTO 20003KT 2 1/2SM BR FEW007 OVC055 00/M02 A3006 RMK AO2 SLP192 T00001022 51014 TSNO


Station Type Date Time Source
KISW Decoded METAR 2018/12/13 20:54 UTC NOAA

WI RAPIDS ALEXANDER FIELD, WI, United States (KISW) 44-22N 89-50W 307M
Dec 13, 2018 - 03:54 PM EST / 2018.12.13 2054 UTC
Wind: from the SSW (200 degrees) at 3 MPH (3 KT):0
Visibility: 2 1/2 mile(s):0
Sky conditions: overcast
Weather: mist
Temperature: 32.0 F (0.0 C)
Dew Point: 28.0 F (-2.2 C)
Relative Humidity: 85%
Pressure (altimeter): 30.06 in. Hg (1017 hPa)
Pressure tendency: 0.04 inches (1.4 hPa) higher than three hours ago
ob: KISW 132054Z AUTO 20003KT 2 1/2SM BR FEW007 OVC055 00/M02 A3006 RMK AO2 SLP192 T00001022 51014 TSNO
cycle: 21

Station Type Date Time Source
KISW TAF UTC NOAA

Error!


Example: see airport list